Weather observations for the past three days for
Fort Pierce, St. Lucie County International Airport
| Date | Time (edt) | Wind (kph) | Vis. (km) | Weather | Sky Cond. | Temperature (ºC) | Relative Humidity | Wind Chill (°C) | Heat Index (°C) | Pressure | Precipitation (cm) | ||||||
|---|---|---|---|---|---|---|---|---|---|---|---|---|---|---|---|---|---|
| Air | Dwpt | 6 hour | altimeter (cm) | sea level (mb) | 1 hr | 3 hr | 6 hr | ||||||||||
| Max. | Min. | ||||||||||||||||
| 07 | 14:53 | SW 17 | 16.09 | Fair | CLR | 33.3 | 17.2 | 38% | 34 | 76.1 | 1014.5 | ||||||
| 07 | 13:53 | SW 19 G 28 | 16.09 | Fair | CLR | 32.8 | 18.3 | 33.3 | 21.1 | 42% | 34 | 76.15 | 1015.3 | ||||
| 07 | 12:53 | SW 9 | 16.09 | Partly Cloudy | SCT044 | 31.1 | 20.6 | 54% | 34 | 76.17 | 1015.4 | ||||||
| 07 | 11:53 | SW 15 | 16.09 | Fair | CLR | 30.6 | 20 | 53% | 33 | 76.23 | 1016.1 | ||||||
| 07 | 10:53 | W 9 | 16.09 | Fair | CLR | 28.9 | 20 | 59% | 31 | 76.25 | 1016.6 | ||||||
| 07 | 09:53 | SW 11 | 16.09 | Fair | CLR | 27.8 | 18.9 | 58% | 29 | 76.28 | 1016.8 | ||||||
| 07 | 08:53 | SW 9 | 16.09 | Fair | CLR | 25.6 | 20.6 | 74% | 27 | 76.28 | 1016.7 | ||||||
| 07 | 07:53 | Calm | 16.09 | Fair | CLR | 21.1 | 20 | 21.1 | 16.7 | 93% | 76.25 | 1016.6 | |||||
| 07 | 06:53 | Calm | 8.05 | Fog/Mist | CLR | 17.8 | 17.8 | 100% | 76.23 | 1016.3 | |||||||
| 07 | 05:53 | Calm | 16.09 | Fair | CLR | 17.2 | 17.2 | 100% | 76.17 | 1015.4 | |||||||
| 07 | 04:53 | Calm | 16.09 | Fair | CLR | 17.8 | 17.2 | 96% | 76.12 | 1014.7 | |||||||
| 07 | 03:53 | Calm | 16.09 | Fair | CLR | 18.3 | 17.2 | 93% | 76.12 | 1014.8 | |||||||
| 07 | 02:53 | NW 6 | 16.09 | Fair | CLR | 19.4 | 18.3 | 93% | 76.17 | 1015.6 | |||||||
| 07 | 01:53 | SW 6 | 16.09 | Fair | CLR | 21.1 | 18.9 | 25.6 | 21.1 | 87% | 76.2 | 1015.9 | |||||
| 07 | 00:53 | SE 11 | 16.09 | Fair | CLR | 24.4 | 18.9 | 72% | 25 | 76.23 | 1016.2 | ||||||
| 06 | 23:53 | SE 13 | 16.09 | Fair | CLR | 23.9 | 19.4 | 76% | 24 | 76.23 | 1016.3 | ||||||
| 06 | 22:53 | E 13 | 16.09 | Fair | CLR | 24.4 | 20 | 77% | 25 | 76.25 | 1016.4 | ||||||
| 06 | 21:53 | E 13 | 16.09 | Fair | CLR | 25 | 18.9 | 69% | 26 | 76.25 | 1016.4 | ||||||
| 06 | 20:53 | SE 13 | 16.09 | Fair | CLR | 25 | 18.9 | 69% | 26 | 76.23 | 1016.3 | ||||||
| 06 | 19:53 | E 15 | 16.09 | Fair | CLR | 25.6 | 17.8 | 30 | 25.6 | 62% | 27 | 76.23 | 1016.0 | ||||
| 06 | 18:53 | E 22 | 16.09 | Fair | CLR | 27.2 | 16.7 | 53% | 28 | 76.23 | 1016.1 | ||||||
| 06 | 17:53 | E 22 | 16.09 | Fair | CLR | 28.3 | 18.3 | 55% | 29 | 76.23 | 1016.0 | ||||||
| 06 | 16:53 | E 17 | 16.09 | Fair | CLR | 28.9 | 18.9 | 55% | 30 | 76.23 | 1016.0 | ||||||
| 06 | 15:53 | SE 19 | 16.09 | Fair | CLR | 29.4 | 17.8 | 50% | 30 | 76.23 | 1016.3 | ||||||
| 06 | 14:53 | E 19 | 16.09 | Fair | CLR | 30 | 13.9 | 37% | 29 | 76.28 | 1016.8 | ||||||
| 06 | 13:53 | SE 15 | 16.09 | Fair | CLR | 29.4 | 17.2 | 30 | 21.1 | 48% | 30 | 76.3 | 1017.3 | ||||
| 06 | 12:53 | SE 19 | 16.09 | Fair | CLR | 28.9 | 17.8 | 51% | 30 | 76.33 | 1017.4 | ||||||
| 06 | 11:53 | SE 15 | 16.09 | Fair | CLR | 28.9 | 17.2 | 49% | 29 | 76.35 | 1017.8 | ||||||
| 06 | 10:53 | E 17 | 16.09 | Fair | CLR | 27.8 | 19.4 | 60% | 29 | 76.33 | 1017.6 | ||||||
| 06 | 09:53 | E 13 | 16.09 | Fair | CLR | 26.7 | 21.7 | 74% | 29 | 76.33 | 1017.4 | ||||||
| 06 | 08:53 | E 15 | 16.09 | Fair | CLR | 25.6 | 21.7 | 79% | 27 | 76.28 | 1016.9 | ||||||
| 06 | 07:53 | Calm | 16.09 | Fair | CLR | 21.1 | 20.6 | 22.8 | 17.8 | 97% | 76.28 | 1016.7 | |||||
| 06 | 06:53 | Calm | 16.09 | Fair | CLR | 18.3 | 17.8 | 97% | 76.23 | 1016.2 | |||||||
| 06 | 05:53 | Calm | 16.09 | Fair | CLR | 18.3 | 17.8 | 97% | 76.2 | 1015.8 | |||||||
| 06 | 04:53 | Calm | 16.09 | Fair | CLR | 19.4 | 18.9 | 97% | 76.17 | 1015.5 | |||||||
| 06 | 03:53 | Calm | 16.09 | A Few Clouds | FEW021 | 20.6 | 19.4 | 93% | 76.17 | 1015.6 | |||||||
| 06 | 02:53 | E 7 | 16.09 | Fair | CLR | 22.2 | 20 | 87% | 76.2 | 1015.8 | |||||||
| 06 | 01:53 | E 11 | 16.09 | A Few Clouds | FEW021 | 22.8 | 20 | 24.4 | 22.2 | 84% | 76.23 | 1016.0 | |||||
| 06 | 00:53 | E 11 | 16.09 | Fair | CLR | 22.8 | 20 | 84% | 76.23 | 1016.3 | |||||||
| 05 | 23:53 | E 11 | 16.09 | Fair | CLR | 23.9 | 19.4 | 76% | 24 | 76.28 | 1016.8 | ||||||
| 05 | 22:53 | E 17 | 16.09 | Fair | CLR | 23.9 | 19.4 | 76% | 24 | 76.25 | 1016.6 | ||||||
| 05 | 21:53 | E 11 | 16.09 | Fair | CLR | 23.9 | 18.3 | 71% | 25 | 76.23 | 1016.1 | ||||||
| 05 | 20:53 | E 9 | 16.09 | Fair | CLR | 23.9 | 17.2 | 66% | 25 | 76.17 | 1015.5 | ||||||
| 05 | 19:53 | E 13 | 16.09 | Fair | CLR | 24.4 | 17.8 | 27.2 | 24.4 | 67% | 25 | 76.15 | 1015.0 | ||||
| 05 | 18:53 | NE 15 G 30 | 16.09 | Fair | CLR | 25.6 | 18.9 | 67% | 27 | 76.17 | 1015.4 | ||||||
| 05 | 17:53 | E 19 G 30 | 16.09 | A Few Clouds | FEW028 | 26.1 | 19.4 | 67% | 27 | 76.15 | 1015.0 | ||||||
| 05 | 16:53 | NE 17 G 30 | 16.09 | Mostly Cloudy | SCT027 BKN034 | 26.7 | 19.4 | 64% | 28 | 76.15 | 1015.1 | ||||||
| 05 | 15:53 | E 20 G 30 | 16.09 | Partly Cloudy | SCT027 | 26.7 | 20 | 67% | 28 | 76.17 | 1015.3 | ||||||
| 05 | 14:53 | NE 22 | 16.09 | A Few Clouds | FEW032 FEW043 | 26.7 | 20 | 67% | 28 | 76.2 | 1015.9 | ||||||
| 05 | 13:53 | E 19 G 37 | 16.09 | Mostly Cloudy | FEW027 SCT035 BKN060 | 27.2 | 19.4 | 27.2 | 23.3 | 62% | 29 | 76.23 | 1016.3 | ||||
| 05 | 12:53 | E 20 | 16.09 | Mostly Cloudy | BKN060 | 26.7 | 18.9 | 62% | 28 | 76.25 | 1016.4 | ||||||
| 05 | 11:53 | E 20 | 16.09 | Partly Cloudy | SCT060 | 26.7 | 18.3 | 60% | 28 | 76.28 | 1016.7 | ||||||
| 05 | 10:53 | E 24 G 37 | 16.09 | Fair | CLR | 26.1 | 18.3 | 62% | 27 | 76.25 | 1016.3 | ||||||
| 05 | 09:53 | E 22 | 16.09 | Fair | CLR | 25.6 | 18.3 | 64% | 27 | 76.2 | 1015.9 | ||||||
| 05 | 08:53 | NE 19 G 31 | 16.09 | A Few Clouds | FEW065 | 24.4 | 17.8 | 67% | 25 | 76.2 | 1015.8 | ||||||
| 05 | 07:53 | E 11 | 16.09 | Mostly Cloudy | FEW027 BKN060 | 23.3 | 18.3 | 23.3 | 22.2 | 74% | 76.17 | 1015.4 | |||||
| 05 | 06:53 | E 9 | 16.09 | Mostly Cloudy | FEW028 BKN060 | 22.8 | 18.3 | 76% | 76.15 | 1015.0 | |||||||
| 05 | 05:53 | E 11 | 16.09 | A Few Clouds | FEW025 | 22.2 | 18.3 | 79% | 76.07 | 1014.3 | |||||||
| 05 | 04:53 | E 13 | 16.09 | Fair | CLR | 22.2 | 17.8 | 76% | 76.07 | 1014.0 | |||||||
| 05 | 03:53 | E 17 | 16.09 | Fair | CLR | 22.2 | 17.8 | 76% | 76.05 | 1013.6 | |||||||
| 05 | 02:53 | E 15 | 16.09 | A Few Clouds | FEW030 | 22.8 | 17.2 | 71% | 76.1 | 1014.4 | |||||||
| 05 | 01:53 | E 15 | 16.09 | Mostly Cloudy | FEW030 BKN036 | 22.8 | 17.8 | 23.3 | 22.8 | 74% | 76.15 | 1015.2 | |||||
| 05 | 00:53 | E 15 | 16.09 | Partly Cloudy | FEW028 SCT034 | 22.8 | 17.8 | 74% | 76.15 | 1015.3 | |||||||
| 04 | 23:53 | E 15 | 16.09 | Mostly Cloudy | FEW030 BKN038 | 22.8 | 17.8 | 74% | 76.17 | 1015.6 | |||||||
| 04 | 22:53 | E 17 | 16.09 | Mostly Cloudy | FEW030 BKN046 | 22.8 | 17.2 | 71% | 76.2 | 1015.8 | |||||||
| 04 | 21:53 | E 15 | 16.09 | Overcast | FEW028 OVC043 | 23.3 | 17.8 | 71% | 76.2 | 1015.7 | |||||||
| 04 | 20:53 | E 20 | 16.09 | Mostly Cloudy | FEW029 SCT040 BKN049 | 23.3 | 17.2 | 69% | 76.15 | 1015.3 | |||||||
| 04 | 19:53 | E 19 | 16.09 | Partly Cloudy | FEW027 SCT036 | 23.3 | 17.8 | 26.1 | 23.3 | 71% | 76.12 | 1014.7 | |||||
| 04 | 18:53 | E 20 | 16.09 | Overcast | FEW027 BKN037 OVC065 | 24.4 | 17.8 | 67% | 25 | 76.1 | 1014.4 | ||||||
| 04 | 17:53 | E 17 G 33 | 16.09 | Overcast | SCT026 BKN040 OVC050 | 23.9 | 17.8 | 69% | 25 | 76.12 | 1014.7 | ||||||
| 04 | 16:53 | E 20 G 39 | 16.09 | Overcast | SCT028 BKN036 OVC065 | 24.4 | 18.3 | 69% | 25 | 76.12 | 1014.8 | ||||||
| 04 | 15:53 | E 26 G 39 | 16.09 | Overcast | FEW036 SCT043 OVC065 | 24.4 | 17.8 | 67% | 25 | 76.15 | 1015.3 | ||||||
| Date | Time (edt) | Wind (kph) | Vis. (km) | Weather | Sky Cond. | Air | Dwpt | Max. | Min. | Relative Humidity | Wind Chill (°C) | Heat Index (°C) | altimeter (cm) | sea level (mb) | 1 hr | 3 hr | 6 hr |
| 6 hour | |||||||||||||||||
| Temperature (ºC) | Pressure | Precipitation (cm) | |||||||||||||||